sensor_id;sensor_type;location;lat;lon;timestamp;P1;durP1;ratioP1;P2;durP2;ratioP2
75512;SDS011;64090;49.770;18.760;2023-05-19T00:01:20;14.00;;;9.90;;
75512;SDS011;64090;49.770;18.760;2023-05-19T00:04:23;7.80;;;4.60;;
75512;SDS011;64090;49.770;18.760;2023-05-19T00:07:28;13.70;;;8.20;;
75512;SDS011;64090;49.770;18.760;2023-05-19T00:10:34;14.10;;;8.50;;
75512;SDS011;64090;49.770;18.760;2023-05-19T00:13:38;15.90;;;9.50;;
75512;SDS011;64090;49.770;18.760;2023-05-19T00:16:41;16.50;;;9.90;;
75512;SDS011;64090;49.770;18.760;2023-05-19T00:19:44;15.00;;;9.50;;
75512;SDS011;64090;49.770;18.760;2023-05-19T00:22:48;15.80;;;9.90;;
75512;SDS011;64090;49.770;18.760;2023-05-19T00:25:52;11.10;;;6.90;;
75512;SDS011;64090;49.770;18.760;2023-05-19T00:28:55;14.20;;;9.10;;
75512;SDS011;64090;49.770;18.760;2023-05-19T00:31:58;16.20;;;9.90;;
75512;SDS011;64090;49.770;18.760;2023-05-19T00:35:02;15.40;;;9.40;;
75512;SDS011;64090;49.770;18.760;2023-05-19T00:38:05;16.30;;;10.50;;
75512;SDS011;64090;49.770;18.760;2023-05-19T00:41:08;15.50;;;10.30;;
75512;SDS011;64090;49.770;18.760;2023-05-19T00:44:11;14.10;;;9.10;;
75512;SDS011;64090;49.770;18.760;2023-05-19T00:47:14;14.20;;;9.50;;
75512;SDS011;64090;49.770;18.760;2023-05-19T00:50:18;13.10;;;8.60;;
75512;SDS011;64090;49.770;18.760;2023-05-19T00:53:21;19.80;;;11.20;;
75512;SDS011;64090;49.770;18.760;2023-05-19T00:56:26;22.60;;;12.20;;
75512;SDS011;64090;49.770;18.760;2023-05-19T00:59:29;17.90;;;11.00;;
75512;SDS011;64090;49.770;18.760;2023-05-19T01:02:32;18.70;;;11.10;;
75512;SDS011;64090;49.770;18.760;2023-05-19T01:05:37;17.00;;;11.20;;
75512;SDS011;64090;49.770;18.760;2023-05-19T01:08:41;19.20;;;10.80;;
75512;SDS011;64090;49.770;18.760;2023-05-19T01:11:45;18.80;;;10.40;;
75512;SDS011;64090;49.770;18.760;2023-05-19T01:14:47;18.00;;;11.60;;
75512;SDS011;64090;49.770;18.760;2023-05-19T01:17:58;16.80;;;10.10;;
75512;SDS011;64090;49.770;18.760;2023-05-19T01:31:36;17.70;;;11.20;;
75512;SDS011;64090;49.770;18.760;2023-05-19T01:34:42;14.80;;;9.00;;
75512;SDS011;64090;49.770;18.760;2023-05-19T01:37:48;11.60;;;7.30;;
75512;SDS011;64090;49.770;18.760;2023-05-19T01:40:57;10.50;;;6.90;;
75512;SDS011;64090;49.770;18.760;2023-05-19T01:44:06;18.00;;;11.10;;
75512;SDS011;64090;49.770;18.760;2023-05-19T01:47:11;16.70;;;10.70;;
75512;SDS011;64090;49.770;18.760;2023-05-19T01:50:20;11.80;;;7.50;;
75512;SDS011;64090;49.770;18.760;2023-05-19T01:53:25;16.30;;;10.10;;
75512;SDS011;64090;49.770;18.760;2023-05-19T01:56:33;15.20;;;9.60;;
75512;SDS011;64090;49.770;18.760;2023-05-19T01:59:58;14.40;;;9.60;;
75512;SDS011;64090;49.770;18.760;2023-05-19T02:03:17;15.70;;;9.70;;
75512;SDS011;64090;49.770;18.760;2023-05-19T02:06:40;14.50;;;8.40;;
75512;SDS011;64090;49.770;18.760;2023-05-19T02:09:52;14.20;;;9.60;;
75512;SDS011;64090;49.770;18.760;2023-05-19T02:13:13;15.00;;;9.80;;
75512;SDS011;64090;49.770;18.760;2023-05-19T02:16:24;13.20;;;9.00;;
75512;SDS011;64090;49.770;18.760;2023-05-19T02:19:37;13.00;;;8.80;;
75512;SDS011;64090;49.770;18.760;2023-05-19T02:22:44;13.90;;;9.60;;
75512;SDS011;64090;49.770;18.760;2023-05-19T02:25:54;16.00;;;9.90;;
75512;SDS011;64090;49.770;18.760;2023-05-19T02:28:59;16.70;;;10.60;;
75512;SDS011;64090;49.770;18.760;2023-05-19T02:32:05;16.70;;;10.00;;
75512;SDS011;64090;49.770;18.760;2023-05-19T02:35:11;14.10;;;8.80;;
75512;SDS011;64090;49.770;18.760;2023-05-19T02:38:24;17.70;;;10.20;;
75512;SDS011;64090;49.770;18.760;2023-05-19T02:41:28;18.80;;;10.80;;
75512;SDS011;64090;49.770;18.760;2023-05-19T02:44:32;16.60;;;10.00;;
75512;SDS011;64090;49.770;18.760;2023-05-19T02:47:35;16.70;;;10.50;;
75512;SDS011;64090;49.770;18.760;2023-05-19T02:50:41;17.50;;;10.20;;
75512;SDS011;64090;49.770;18.760;2023-05-19T02:53:48;10.40;;;6.00;;
75512;SDS011;64090;49.770;18.760;2023-05-19T02:56:52;16.40;;;9.90;;
75512;SDS011;64090;49.770;18.760;2023-05-19T02:59:55;17.00;;;10.40;;
75512;SDS011;64090;49.770;18.760;2023-05-19T03:02:59;15.80;;;10.40;;
75512;SDS011;64090;49.770;18.760;2023-05-19T03:06:04;17.60;;;10.70;;
75512;SDS011;64090;49.770;18.760;2023-05-19T03:09:10;16.30;;;10.70;;
75512;SDS011;64090;49.770;18.760;2023-05-19T03:12:14;18.70;;;11.10;;
75512;SDS011;64090;49.770;18.760;2023-05-19T03:18:25;18.10;;;10.70;;
75512;SDS011;64090;49.770;18.760;2023-05-19T03:21:31;18.90;;;11.20;;
75512;SDS011;64090;49.770;18.760;2023-05-19T03:24:36;20.60;;;11.30;;
75512;SDS011;64090;49.770;18.760;2023-05-19T03:27:39;18.90;;;11.30;;
75512;SDS011;64090;49.770;18.760;2023-05-19T03:30:46;19.80;;;10.90;;
75512;SDS011;64090;49.770;18.760;2023-05-19T03:33:54;21.50;;;12.00;;
75512;SDS011;64090;49.770;18.760;2023-05-19T03:36:59;19.70;;;10.90;;
75512;SDS011;64090;49.770;18.760;2023-05-19T03:40:03;19.20;;;11.10;;
75512;SDS011;64090;49.770;18.760;2023-05-19T03:43:08;23.80;;;12.50;;
75512;SDS011;64090;49.770;18.760;2023-05-19T03:46:13;21.80;;;12.70;;
75512;SDS011;64090;49.770;18.760;2023-05-19T03:49:17;20.70;;;12.00;;
75512;SDS011;64090;49.770;18.760;2023-05-19T03:52:24;20.10;;;10.90;;
75512;SDS011;64090;49.770;18.760;2023-05-19T03:55:29;18.70;;;10.50;;
75512;SDS011;64090;49.770;18.760;2023-05-19T03:58:33;19.80;;;11.10;;
75512;SDS011;64090;49.770;18.760;2023-05-19T04:01:40;21.10;;;12.10;;
75512;SDS011;64090;49.770;18.760;2023-05-19T04:04:44;17.00;;;9.90;;
75512;SDS011;64090;49.770;18.760;2023-05-19T04:07:48;17.80;;;10.60;;
75512;SDS011;64090;49.770;18.760;2023-05-19T04:10:51;20.90;;;11.70;;
75512;SDS011;64090;49.770;18.760;2023-05-19T04:13:55;19.30;;;10.40;;
75512;SDS011;64090;49.770;18.760;2023-05-19T04:16:58;20.40;;;11.40;;
75512;SDS011;64090;49.770;18.760;2023-05-19T04:20:02;16.70;;;9.50;;
75512;SDS011;64090;49.770;18.760;2023-05-19T04:23:10;19.50;;;11.10;;
75512;SDS011;64090;49.770;18.760;2023-05-19T04:26:14;18.80;;;10.30;;
75512;SDS011;64090;49.770;18.760;2023-05-19T04:29:20;17.90;;;10.90;;
75512;SDS011;64090;49.770;18.760;2023-05-19T04:32:25;18.20;;;9.90;;
75512;SDS011;64090;49.770;18.760;2023-05-19T04:35:34;16.60;;;10.40;;
75512;SDS011;64090;49.770;18.760;2023-05-19T04:39:07;16.30;;;9.30;;
75512;SDS011;64090;49.770;18.760;2023-05-19T04:42:33;15.60;;;10.10;;
75512;SDS011;64090;49.770;18.760;2023-05-19T04:45:49;15.40;;;9.80;;
75512;SDS011;64090;49.770;18.760;2023-05-19T04:48:53;17.30;;;10.60;;
75512;SDS011;64090;49.770;18.760;2023-05-19T04:51:59;13.20;;;7.70;;
75512;SDS011;64090;49.770;18.760;2023-05-19T04:55:03;10.50;;;6.20;;
75512;SDS011;64090;49.770;18.760;2023-05-19T04:58:07;12.90;;;8.80;;
75512;SDS011;64090;49.770;18.760;2023-05-19T05:01:10;10.60;;;6.80;;
75512;SDS011;64090;49.770;18.760;2023-05-19T05:04:34;15.30;;;8.90;;
75512;SDS011;64090;49.770;18.760;2023-05-19T05:07:38;12.40;;;7.50;;
75512;SDS011;64090;49.770;18.760;2023-05-19T05:10:43;12.60;;;8.30;;
75512;SDS011;64090;49.770;18.760;2023-05-19T05:13:56;12.50;;;8.40;;
75512;SDS011;64090;49.770;18.760;2023-05-19T05:17:01;14.40;;;9.00;;
75512;SDS011;64090;49.770;18.760;2023-05-19T05:20:05;11.80;;;8.30;;
75512;SDS011;64090;49.770;18.760;2023-05-19T05:23:10;13.60;;;9.20;;
75512;SDS011;64090;49.770;18.760;2023-05-19T05:26:18;13.10;;;8.40;;
75512;SDS011;64090;49.770;18.760;2023-05-19T05:29:26;13.10;;;8.40;;
75512;SDS011;64090;49.770;18.760;2023-05-19T05:32:29;10.70;;;6.70;;
75512;SDS011;64090;49.770;18.760;2023-05-19T05:35:33;12.00;;;8.20;;
75512;SDS011;64090;49.770;18.760;2023-05-19T05:38:37;11.40;;;7.70;;
75512;SDS011;64090;49.770;18.760;2023-05-19T05:41:40;11.10;;;7.80;;
75512;SDS011;64090;49.770;18.760;2023-05-19T05:44:44;10.80;;;7.20;;
75512;SDS011;64090;49.770;18.760;2023-05-19T05:47:48;9.90;;;7.40;;
75512;SDS011;64090;49.770;18.760;2023-05-19T05:50:52;10.50;;;6.90;;
75512;SDS011;64090;49.770;18.760;2023-05-19T05:53:58;11.40;;;7.90;;
75512;SDS011;64090;49.770;18.760;2023-05-19T05:57:02;9.10;;;6.80;;
75512;SDS011;64090;49.770;18.760;2023-05-19T06:00:06;9.10;;;6.30;;
75512;SDS011;64090;49.770;18.760;2023-05-19T06:03:18;9.50;;;7.10;;
75512;SDS011;64090;49.770;18.760;2023-05-19T06:06:26;10.50;;;7.20;;
75512;SDS011;64090;49.770;18.760;2023-05-19T06:09:30;9.00;;;6.90;;
75512;SDS011;64090;49.770;18.760;2023-05-19T06:12:34;9.30;;;6.50;;
75512;SDS011;64090;49.770;18.760;2023-05-19T06:15:42;9.10;;;6.60;;
75512;SDS011;64090;49.770;18.760;2023-05-19T06:18:46;8.40;;;5.90;;
75512;SDS011;64090;49.770;18.760;2023-05-19T06:21:50;9.80;;;6.70;;
75512;SDS011;64090;49.770;18.760;2023-05-19T06:24:53;9.50;;;6.30;;
75512;SDS011;64090;49.770;18.760;2023-05-19T06:27:59;7.60;;;5.50;;
75512;SDS011;64090;49.770;18.760;2023-05-19T06:31:02;7.50;;;5.70;;
75512;SDS011;64090;49.770;18.760;2023-05-19T06:34:06;6.90;;;5.50;;
75512;SDS011;64090;49.770;18.760;2023-05-19T06:37:12;9.10;;;6.60;;
75512;SDS011;64090;49.770;18.760;2023-05-19T06:40:21;8.20;;;5.90;;
75512;SDS011;64090;49.770;18.760;2023-05-19T06:43:24;8.70;;;7.00;;
75512;SDS011;64090;49.770;18.760;2023-05-19T06:46:28;8.20;;;5.90;;
75512;SDS011;64090;49.770;18.760;2023-05-19T06:49:31;8.40;;;6.20;;
75512;SDS011;64090;49.770;18.760;2023-05-19T06:52:35;7.80;;;6.20;;
75512;SDS011;64090;49.770;18.760;2023-05-19T06:55:40;7.70;;;5.50;;
75512;SDS011;64090;49.770;18.760;2023-05-19T06:59:01;8.00;;;6.10;;
75512;SDS011;64090;49.770;18.760;2023-05-19T07:02:04;6.60;;;5.10;;
75512;SDS011;64090;49.770;18.760;2023-05-19T07:05:09;6.50;;;4.70;;
75512;SDS011;64090;49.770;18.760;2023-05-19T07:08:17;7.80;;;5.20;;
75512;SDS011;64090;49.770;18.760;2023-05-19T07:11:38;7.70;;;5.40;;
75512;SDS011;64090;49.770;18.760;2023-05-19T07:14:43;7.00;;;5.40;;
75512;SDS011;64090;49.770;18.760;2023-05-19T07:17:47;7.40;;;5.20;;
75512;SDS011;64090;49.770;18.760;2023-05-19T07:20:53;8.10;;;5.70;;
75512;SDS011;64090;49.770;18.760;2023-05-19T07:23:57;9.70;;;5.50;;
75512;SDS011;64090;49.770;18.760;2023-05-19T07:27:00;7.50;;;5.60;;
75512;SDS011;64090;49.770;18.760;2023-05-19T07:30:06;7.90;;;5.30;;
75512;SDS011;64090;49.770;18.760;2023-05-19T07:33:10;7.50;;;5.10;;
75512;SDS011;64090;49.770;18.760;2023-05-19T07:36:14;6.70;;;5.00;;
75512;SDS011;64090;49.770;18.760;2023-05-19T07:39:17;6.50;;;4.80;;
75512;SDS011;64090;49.770;18.760;2023-05-19T07:42:21;8.00;;;5.10;;
75512;SDS011;64090;49.770;18.760;2023-05-19T07:45:33;7.40;;;5.20;;
75512;SDS011;64090;49.770;18.760;2023-05-19T07:48:37;7.60;;;5.50;;
75512;SDS011;64090;49.770;18.760;2023-05-19T07:51:41;6.50;;;4.80;;
75512;SDS011;64090;49.770;18.760;2023-05-19T07:54:44;7.30;;;5.00;;
75512;SDS011;64090;49.770;18.760;2023-05-19T07:57:50;7.20;;;5.30;;
75512;SDS011;64090;49.770;18.760;2023-05-19T08:00:57;7.10;;;5.00;;
75512;SDS011;64090;49.770;18.760;2023-05-19T08:04:02;5.80;;;4.60;;
75512;SDS011;64090;49.770;18.760;2023-05-19T08:07:05;7.20;;;5.00;;
75512;SDS011;64090;49.770;18.760;2023-05-19T08:10:09;7.40;;;5.20;;
75512;SDS011;64090;49.770;18.760;2023-05-19T08:13:12;7.40;;;5.20;;
75512;SDS011;64090;49.770;18.760;2023-05-19T08:16:16;7.00;;;4.90;;
75512;SDS011;64090;49.770;18.760;2023-05-19T08:19:19;7.70;;;4.90;;
75512;SDS011;64090;49.770;18.760;2023-05-19T08:22:24;6.40;;;4.80;;
75512;SDS011;64090;49.770;18.760;2023-05-19T08:25:27;6.90;;;4.00;;
75512;SDS011;64090;49.770;18.760;2023-05-19T08:28:31;6.60;;;4.30;;
75512;SDS011;64090;49.770;18.760;2023-05-19T08:31:34;6.90;;;4.40;;
75512;SDS011;64090;49.770;18.760;2023-05-19T08:34:38;5.80;;;4.80;;
75512;SDS011;64090;49.770;18.760;2023-05-19T08:37:41;4.50;;;3.70;;
75512;SDS011;64090;49.770;18.760;2023-05-19T08:40:45;5.90;;;4.00;;
75512;SDS011;64090;49.770;18.760;2023-05-19T08:43:50;6.00;;;4.30;;
75512;SDS011;64090;49.770;18.760;2023-05-19T08:46:53;5.60;;;4.40;;
75512;SDS011;64090;49.770;18.760;2023-05-19T08:50:02;5.10;;;3.90;;
75512;SDS011;64090;49.770;18.760;2023-05-19T08:53:17;5.70;;;4.40;;
75512;SDS011;64090;49.770;18.760;2023-05-19T08:56:33;5.60;;;4.10;;
75512;SDS011;64090;49.770;18.760;2023-05-19T08:59:38;4.90;;;4.10;;
75512;SDS011;64090;49.770;18.760;2023-05-19T09:02:43;8.00;;;5.30;;
75512;SDS011;64090;49.770;18.760;2023-05-19T09:06:07;5.50;;;4.60;;
75512;SDS011;64090;49.770;18.760;2023-05-19T09:09:15;6.20;;;4.60;;
75512;SDS011;64090;49.770;18.760;2023-05-19T09:12:19;7.60;;;4.50;;
75512;SDS011;64090;49.770;18.760;2023-05-19T09:15:24;5.40;;;4.10;;
75512;SDS011;64090;49.770;18.760;2023-05-19T09:18:30;4.80;;;3.90;;
75512;SDS011;64090;49.770;18.760;2023-05-19T09:21:33;6.10;;;3.90;;
75512;SDS011;64090;49.770;18.760;2023-05-19T09:24:38;5.40;;;4.20;;
75512;SDS011;64090;49.770;18.760;2023-05-19T09:27:42;5.30;;;4.10;;
75512;SDS011;64090;49.770;18.760;2023-05-19T09:30:45;5.80;;;4.50;;
75512;SDS011;64090;49.770;18.760;2023-05-19T09:33:49;6.20;;;4.60;;
75512;SDS011;64090;49.770;18.760;2023-05-19T09:36:55;6.40;;;3.70;;
75512;SDS011;64090;49.770;18.760;2023-05-19T09:40:02;6.70;;;4.80;;
75512;SDS011;64090;49.770;18.760;2023-05-19T09:43:09;5.60;;;4.10;;
75512;SDS011;64090;49.770;18.760;2023-05-19T09:46:12;5.00;;;4.20;;
75512;SDS011;64090;49.770;18.760;2023-05-19T09:49:18;5.50;;;4.70;;
75512;SDS011;64090;49.770;18.760;2023-05-19T09:52:25;5.90;;;4.40;;
75512;SDS011;64090;49.770;18.760;2023-05-19T09:55:29;5.60;;;4.30;;
75512;SDS011;64090;49.770;18.760;2023-05-19T09:58:35;5.60;;;4.70;;
75512;SDS011;64090;49.770;18.760;2023-05-19T10:01:39;5.60;;;3.70;;
75512;SDS011;64090;49.770;18.760;2023-05-19T10:04:48;5.50;;;4.10;;
75512;SDS011;64090;49.770;18.760;2023-05-19T10:07:53;5.80;;;4.20;;
75512;SDS011;64090;49.770;18.760;2023-05-19T10:10:57;5.00;;;3.60;;
75512;SDS011;64090;49.770;18.760;2023-05-19T10:14:01;5.60;;;4.30;;
75512;SDS011;64090;49.770;18.760;2023-05-19T10:17:06;6.00;;;4.20;;
75512;SDS011;64090;49.770;18.760;2023-05-19T10:20:13;5.90;;;4.20;;
75512;SDS011;64090;49.770;18.760;2023-05-19T10:23:18;4.60;;;3.80;;
75512;SDS011;64090;49.770;18.760;2023-05-19T10:26:21;5.30;;;4.60;;
75512;SDS011;64090;49.770;18.760;2023-05-19T10:29:29;6.50;;;4.50;;
75512;SDS011;64090;49.770;18.760;2023-05-19T10:32:36;6.90;;;4.30;;
75512;SDS011;64090;49.770;18.760;2023-05-19T10:39:16;6.60;;;4.90;;
75512;SDS011;64090;49.770;18.760;2023-05-19T10:42:34;5.90;;;5.10;;
75512;SDS011;64090;49.770;18.760;2023-05-19T10:45:47;6.90;;;5.30;;
75512;SDS011;64090;49.770;18.760;2023-05-19T10:48:51;8.00;;;5.30;;
75512;SDS011;64090;49.770;18.760;2023-05-19T10:51:54;6.90;;;4.80;;
75512;SDS011;64090;49.770;18.760;2023-05-19T10:58:02;6.60;;;5.60;;
75512;SDS011;64090;49.770;18.760;2023-05-19T11:01:06;7.60;;;5.80;;
75512;SDS011;64090;49.770;18.760;2023-05-19T11:04:20;7.00;;;5.50;;
75512;SDS011;64090;49.770;18.760;2023-05-19T11:07:43;7.30;;;5.80;;
75512;SDS011;64090;49.770;18.760;2023-05-19T11:14:19;6.60;;;5.90;;
75512;SDS011;64090;49.770;18.760;2023-05-19T11:17:25;7.10;;;5.20;;
75512;SDS011;64090;49.770;18.760;2023-05-19T11:20:29;6.30;;;5.50;;
75512;SDS011;64090;49.770;18.760;2023-05-19T11:23:37;6.30;;;5.40;;
75512;SDS011;64090;49.770;18.760;2023-05-19T11:26:42;7.80;;;5.70;;
75512;SDS011;64090;49.770;18.760;2023-05-19T11:29:45;7.90;;;6.80;;
75512;SDS011;64090;49.770;18.760;2023-05-19T11:32:50;7.40;;;5.90;;
75512;SDS011;64090;49.770;18.760;2023-05-19T11:35:54;7.30;;;6.10;;
75512;SDS011;64090;49.770;18.760;2023-05-19T11:39:02;8.60;;;6.30;;
75512;SDS011;64090;49.770;18.760;2023-05-19T11:42:08;6.40;;;5.70;;
75512;SDS011;64090;49.770;18.760;2023-05-19T11:45:12;7.40;;;6.00;;
75512;SDS011;64090;49.770;18.760;2023-05-19T11:48:19;7.40;;;5.70;;
75512;SDS011;64090;49.770;18.760;2023-05-19T11:51:23;6.90;;;6.10;;
75512;SDS011;64090;49.770;18.760;2023-05-19T11:54:29;7.40;;;6.10;;
75512;SDS011;64090;49.770;18.760;2023-05-19T11:57:36;7.30;;;6.20;;
75512;SDS011;64090;49.770;18.760;2023-05-19T12:00:40;7.50;;;6.60;;
75512;SDS011;64090;49.770;18.760;2023-05-19T12:03:44;8.60;;;7.40;;
75512;SDS011;64090;49.770;18.760;2023-05-19T12:06:48;8.60;;;6.30;;
75512;SDS011;64090;49.770;18.760;2023-05-19T12:09:51;7.80;;;6.90;;
75512;SDS011;64090;49.770;18.760;2023-05-19T12:12:57;8.10;;;6.50;;
75512;SDS011;64090;49.770;18.760;2023-05-19T12:16:02;8.10;;;6.80;;
75512;SDS011;64090;49.770;18.760;2023-05-19T12:19:07;9.60;;;7.40;;
75512;SDS011;64090;49.770;18.760;2023-05-19T12:22:10;8.30;;;7.40;;
75512;SDS011;64090;49.770;18.760;2023-05-19T12:25:14;8.40;;;7.20;;
75512;SDS011;64090;49.770;18.760;2023-05-19T12:28:18;8.20;;;7.00;;
75512;SDS011;64090;49.770;18.760;2023-05-19T12:31:21;8.40;;;7.60;;
75512;SDS011;64090;49.770;18.760;2023-05-19T12:34:25;8.80;;;7.30;;
75512;SDS011;64090;49.770;18.760;2023-05-19T12:37:28;9.90;;;8.00;;
75512;SDS011;64090;49.770;18.760;2023-05-19T12:40:32;8.40;;;7.60;;
75512;SDS011;64090;49.770;18.760;2023-05-19T12:43:37;9.20;;;7.00;;
75512;SDS011;64090;49.770;18.760;2023-05-19T12:46:41;8.40;;;7.40;;
75512;SDS011;64090;49.770;18.760;2023-05-19T12:49:52;8.50;;;6.90;;
75512;SDS011;64090;49.770;18.760;2023-05-19T12:53:01;8.10;;;7.30;;
75512;SDS011;64090;49.770;18.760;2023-05-19T12:56:11;8.20;;;6.90;;
75512;SDS011;64090;49.770;18.760;2023-05-19T13:02:58;7.80;;;6.70;;
75512;SDS011;64090;49.770;18.760;2023-05-19T13:06:02;9.10;;;7.10;;
75512;SDS011;64090;49.770;18.760;2023-05-19T13:09:05;8.80;;;7.30;;
75512;SDS011;64090;49.770;18.760;2023-05-19T13:12:08;8.80;;;7.70;;
75512;SDS011;64090;49.770;18.760;2023-05-19T13:15:11;9.70;;;7.10;;
75512;SDS011;64090;49.770;18.760;2023-05-19T13:18:14;8.00;;;6.90;;
75512;SDS011;64090;49.770;18.760;2023-05-19T13:21:17;9.10;;;7.90;;
75512;SDS011;64090;49.770;18.760;2023-05-19T13:24:20;7.70;;;6.80;;
75512;SDS011;64090;49.770;18.760;2023-05-19T13:27:24;8.60;;;7.10;;
75512;SDS011;64090;49.770;18.760;2023-05-19T13:30:26;9.10;;;7.40;;
75512;SDS011;64090;49.770;18.760;2023-05-19T13:33:30;8.70;;;7.80;;
75512;SDS011;64090;49.770;18.760;2023-05-19T13:36:33;8.40;;;7.40;;
75512;SDS011;64090;49.770;18.760;2023-05-19T13:39:38;12.00;;;8.90;;
75512;SDS011;64090;49.770;18.760;2023-05-19T13:42:42;16.30;;;14.40;;
75512;SDS011;64090;49.770;18.760;2023-05-19T13:45:45;12.20;;;9.80;;
75512;SDS011;64090;49.770;18.760;2023-05-19T13:48:48;9.20;;;8.10;;
75512;SDS011;64090;49.770;18.760;2023-05-19T13:51:52;8.80;;;7.70;;
75512;SDS011;64090;49.770;18.760;2023-05-19T13:54:58;8.50;;;7.60;;
75512;SDS011;64090;49.770;18.760;2023-05-19T13:58:01;8.20;;;7.40;;
75512;SDS011;64090;49.770;18.760;2023-05-19T14:01:05;9.20;;;7.90;;
75512;SDS011;64090;49.770;18.760;2023-05-19T14:04:08;10.50;;;8.30;;
75512;SDS011;64090;49.770;18.760;2023-05-19T14:07:12;9.30;;;7.50;;
75512;SDS011;64090;49.770;18.760;2023-05-19T14:10:15;8.30;;;6.90;;
75512;SDS011;64090;49.770;18.760;2023-05-19T14:13:18;9.40;;;8.20;;
75512;SDS011;64090;49.770;18.760;2023-05-19T14:16:35;9.00;;;7.50;;
75512;SDS011;64090;49.770;18.760;2023-05-19T14:19:39;9.40;;;7.60;;
75512;SDS011;64090;49.770;18.760;2023-05-19T14:22:42;9.90;;;7.60;;
75512;SDS011;64090;49.770;18.760;2023-05-19T14:25:45;9.50;;;8.00;;
75512;SDS011;64090;49.770;18.760;2023-05-19T14:28:48;8.30;;;7.10;;
75512;SDS011;64090;49.770;18.760;2023-05-19T14:31:51;9.80;;;8.10;;
75512;SDS011;64090;49.770;18.760;2023-05-19T14:34:54;10.50;;;8.70;;
75512;SDS011;64090;49.770;18.760;2023-05-19T14:37:57;10.60;;;8.40;;
75512;SDS011;64090;49.770;18.760;2023-05-19T14:41:00;12.50;;;8.90;;
75512;SDS011;64090;49.770;18.760;2023-05-19T14:44:04;11.40;;;9.10;;
75512;SDS011;64090;49.770;18.760;2023-05-19T14:47:07;10.80;;;8.50;;
75512;SDS011;64090;49.770;18.760;2023-05-19T14:50:12;10.30;;;8.40;;
75512;SDS011;64090;49.770;18.760;2023-05-19T14:53:15;11.50;;;9.60;;
75512;SDS011;64090;49.770;18.760;2023-05-19T14:56:18;11.10;;;9.30;;
75512;SDS011;64090;49.770;18.760;2023-05-19T14:59:23;11.80;;;9.00;;
75512;SDS011;64090;49.770;18.760;2023-05-19T15:02:26;13.80;;;9.70;;
75512;SDS011;64090;49.770;18.760;2023-05-19T15:05:31;14.30;;;10.40;;
75512;SDS011;64090;49.770;18.760;2023-05-19T15:08:34;13.70;;;9.80;;
75512;SDS011;64090;49.770;18.760;2023-05-19T15:11:39;11.40;;;9.30;;
75512;SDS011;64090;49.770;18.760;2023-05-19T15:14:42;9.80;;;8.60;;
75512;SDS011;64090;49.770;18.760;2023-05-19T15:17:45;11.50;;;8.90;;
75512;SDS011;64090;49.770;18.760;2023-05-19T15:20:49;12.50;;;9.50;;
75512;SDS011;64090;49.770;18.760;2023-05-19T15:23:52;12.30;;;9.60;;
75512;SDS011;64090;49.770;18.760;2023-05-19T15:26:55;12.80;;;9.20;;
75512;SDS011;64090;49.770;18.760;2023-05-19T15:29:58;12.30;;;9.60;;
75512;SDS011;64090;49.770;18.760;2023-05-19T15:33:01;12.30;;;9.20;;
75512;SDS011;64090;49.770;18.760;2023-05-19T15:36:04;12.80;;;10.30;;
75512;SDS011;64090;49.770;18.760;2023-05-19T15:39:07;12.80;;;9.60;;
75512;SDS011;64090;49.770;18.760;2023-05-19T15:42:11;12.50;;;9.60;;
75512;SDS011;64090;49.770;18.760;2023-05-19T15:45:14;12.80;;;11.00;;
75512;SDS011;64090;49.770;18.760;2023-05-19T15:48:17;14.30;;;9.70;;
75512;SDS011;64090;49.770;18.760;2023-05-19T15:51:20;14.50;;;11.70;;
75512;SDS011;64090;49.770;18.760;2023-05-19T15:54:23;13.50;;;10.30;;
75512;SDS011;64090;49.770;18.760;2023-05-19T15:57:27;13.50;;;10.70;;
75512;SDS011;64090;49.770;18.760;2023-05-19T16:00:30;12.30;;;10.00;;
75512;SDS011;64090;49.770;18.760;2023-05-19T16:03:33;14.00;;;11.10;;
75512;SDS011;64090;49.770;18.760;2023-05-19T16:06:36;13.30;;;10.50;;
75512;SDS011;64090;49.770;18.760;2023-05-19T16:09:39;14.20;;;10.90;;
75512;SDS011;64090;49.770;18.760;2023-05-19T16:12:42;14.10;;;10.70;;
75512;SDS011;64090;49.770;18.760;2023-05-19T16:15:45;13.40;;;10.60;;
75512;SDS011;64090;49.770;18.760;2023-05-19T16:18:48;12.60;;;9.70;;
75512;SDS011;64090;49.770;18.760;2023-05-19T16:21:52;15.20;;;10.90;;
75512;SDS011;64090;49.770;18.760;2023-05-19T16:24:54;16.80;;;11.80;;
75512;SDS011;64090;49.770;18.760;2023-05-19T16:27:57;15.60;;;10.10;;
75512;SDS011;64090;49.770;18.760;2023-05-19T16:31:01;14.20;;;10.50;;
75512;SDS011;64090;49.770;18.760;2023-05-19T16:34:04;14.40;;;11.30;;
75512;SDS011;64090;49.770;18.760;2023-05-19T16:37:07;17.10;;;11.00;;
75512;SDS011;64090;49.770;18.760;2023-05-19T16:40:10;15.90;;;11.30;;
75512;SDS011;64090;49.770;18.760;2023-05-19T16:43:13;14.00;;;11.30;;
75512;SDS011;64090;49.770;18.760;2023-05-19T16:46:16;15.10;;;11.90;;
75512;SDS011;64090;49.770;18.760;2023-05-19T16:49:19;17.00;;;12.60;;
75512;SDS011;64090;49.770;18.760;2023-05-19T16:52:22;13.90;;;9.60;;
75512;SDS011;64090;49.770;18.760;2023-05-19T16:55:25;17.10;;;12.00;;
75512;SDS011;64090;49.770;18.760;2023-05-19T16:58:29;14.10;;;10.50;;
75512;SDS011;64090;49.770;18.760;2023-05-19T17:01:32;15.70;;;11.20;;
75512;SDS011;64090;49.770;18.760;2023-05-19T17:04:35;16.80;;;12.00;;
75512;SDS011;64090;49.770;18.760;2023-05-19T17:07:38;17.20;;;12.60;;
75512;SDS011;64090;49.770;18.760;2023-05-19T17:10:41;18.50;;;12.90;;
75512;SDS011;64090;49.770;18.760;2023-05-19T17:13:44;16.30;;;11.80;;
75512;SDS011;64090;49.770;18.760;2023-05-19T17:16:47;16.50;;;12.20;;
75512;SDS011;64090;49.770;18.760;2023-05-19T17:19:50;17.50;;;11.80;;
75512;SDS011;64090;49.770;18.760;2023-05-19T17:22:53;16.00;;;11.40;;
75512;SDS011;64090;49.770;18.760;2023-05-19T17:25:59;15.70;;;11.70;;
75512;SDS011;64090;49.770;18.760;2023-05-19T17:29:03;18.60;;;12.80;;
75512;SDS011;64090;49.770;18.760;2023-05-19T17:32:07;20.60;;;13.60;;
75512;SDS011;64090;49.770;18.760;2023-05-19T17:35:10;19.90;;;12.80;;
75512;SDS011;64090;49.770;18.760;2023-05-19T17:38:13;20.60;;;13.00;;
75512;SDS011;64090;49.770;18.760;2023-05-19T17:41:16;19.50;;;12.80;;
75512;SDS011;64090;49.770;18.760;2023-05-19T17:44:19;23.50;;;14.10;;
75512;SDS011;64090;49.770;18.760;2023-05-19T17:47:24;23.40;;;15.30;;
75512;SDS011;64090;49.770;18.760;2023-05-19T17:50:27;20.50;;;13.40;;
75512;SDS011;64090;49.770;18.760;2023-05-19T17:53:30;19.50;;;12.40;;
75512;SDS011;64090;49.770;18.760;2023-05-19T17:56:33;19.50;;;12.60;;
75512;SDS011;64090;49.770;18.760;2023-05-19T17:59:43;21.20;;;14.10;;
75512;SDS011;64090;49.770;18.760;2023-05-19T18:02:46;22.30;;;14.90;;
75512;SDS011;64090;49.770;18.760;2023-05-19T18:05:50;23.20;;;15.80;;
75512;SDS011;64090;49.770;18.760;2023-05-19T18:08:53;22.60;;;14.50;;
75512;SDS011;64090;49.770;18.760;2023-05-19T18:11:59;21.80;;;13.30;;
75512;SDS011;64090;49.770;18.760;2023-05-19T18:15:04;22.60;;;14.40;;
75512;SDS011;64090;49.770;18.760;2023-05-19T18:18:07;20.80;;;14.30;;
75512;SDS011;64090;49.770;18.760;2023-05-19T18:21:12;24.60;;;15.20;;
75512;SDS011;64090;49.770;18.760;2023-05-19T18:24:22;23.60;;;15.40;;
75512;SDS011;64090;49.770;18.760;2023-05-19T18:27:30;27.20;;;16.10;;
75512;SDS011;64090;49.770;18.760;2023-05-19T18:30:35;26.40;;;17.20;;
75512;SDS011;64090;49.770;18.760;2023-05-19T18:33:38;27.50;;;17.80;;